Time;durP1;ratioP1;P1;durP2;ratioP2;P2;SDS_P1;SDS_P2;PMS_P1;PMS_P2;Temp;Humidity;BMP_temperature;BMP_pressure;BME280_temperature;BME280_humidity;BME280_pressure;Samples;Min_cycle;Max_cycle;Signal;HPM_P1;HPM_P2
2021/12/26 00:01:28;;;;;;;10.37;4.03;;;-0.50;99.90;;;;;;5050893;28;20053;-68
2021/12/26 00:03:55;;;;;;;10.37;3.97;;;-0.40;99.90;;;;;;5051147;28;20091;-68
2021/12/26 00:06:27;;;;;;;9.10;3.70;;;-0.50;99.90;;;;;;5053493;28;20077;-68
2021/12/26 00:08:56;;;;;;;10.80;4.00;;;-0.50;99.90;;;;;;5052680;28;20103;-68
2021/12/26 00:11:24;;;;;;;12.07;3.77;;;-0.50;99.90;;;;;;5051834;28;20084;-69
2021/12/26 00:13:53;;;;;;;7.90;3.27;;;-0.50;99.90;;;;;;5050830;28;20107;-68
2021/12/26 00:16:21;;;;;;;9.60;3.97;;;-0.50;99.90;;;;;;5050590;28;20059;-69
2021/12/26 00:18:49;;;;;;;9.97;3.77;;;-0.40;99.90;;;;;;5050662;28;20131;-69
2021/12/26 00:21:19;;;;;;;9.70;4.40;;;-0.40;99.90;;;;;;5050650;28;20474;-69
2021/12/26 00:23:47;;;;;;;8.47;3.80;;;-0.40;99.90;;;;;;5050495;28;20473;-69
2021/12/26 00:26:14;;;;;;;8.50;4.20;;;-0.40;99.90;;;;;;5050234;28;20077;-69
2021/12/26 00:28:41;;;;;;;10.37;4.20;;;-0.30;99.90;;;;;;5050552;28;20080;-69
2021/12/26 00:31:08;;;;;;;9.57;4.47;;;-0.40;99.90;;;;;;5050521;28;20049;-69
2021/12/26 00:33:38;;;;;;;10.70;4.23;;;-0.30;99.90;;;;;;5050477;28;20080;-69
2021/12/26 00:36:06;;;;;;;9.90;4.50;;;-0.10;99.90;;;;;;5052168;28;20119;-69
2021/12/26 00:38:33;;;;;;;10.03;4.07;;;-0.10;99.90;;;;;;5054559;28;20052;-69
2021/12/26 00:41:00;;;;;;;9.83;4.20;;;-0.10;99.90;;;;;;5054053;28;20056;-69
2021/12/26 00:43:28;;;;;;;10.27;4.20;;;0.00;99.90;;;;;;5054272;28;20077;-69
2021/12/26 00:45:55;;;;;;;9.57;4.43;;;-0.10;99.90;;;;;;5054105;28;20131;-70
2021/12/26 00:48:22;;;;;;;10.50;4.03;;;-0.10;99.90;;;;;;5054295;28;20076;-70
2021/12/26 00:50:50;;;;;;;9.27;4.27;;;-0.10;99.90;;;;;;5054500;28;20521;-70
2021/12/26 00:53:17;;;;;;;9.10;4.53;;;0.00;99.90;;;;;;5056528;28;20154;-70
2021/12/26 00:55:44;;;;;;;8.70;3.80;;;0.00;99.90;;;;;;5069907;28;20400;-70
2021/12/26 00:58:12;;;;;;;9.53;4.13;;;0.00;99.90;;;;;;5061157;28;20056;-69
2021/12/26 01:00:42;;;;;;;10.97;4.33;;;-0.10;99.90;;;;;;5054347;28;20085;-69
2021/12/26 01:03:11;;;;;;;8.63;3.60;;;0.00;99.90;;;;;;5054015;28;20095;-69
2021/12/26 01:05:40;;;;;;;9.67;4.20;;;0.00;99.90;;;;;;5053693;28;20417;-69
2021/12/26 01:08:13;;;;;;;7.70;3.60;;;-0.10;99.90;;;;;;5054080;28;20048;-69
2021/12/26 01:10:43;;;;;;;9.97;4.00;;;0.00;99.90;;;;;;5053924;28;20065;-68
2021/12/26 01:13:18;;;;;;;9.53;3.97;;;0.00;99.90;;;;;;5054241;28;20225;-68
2021/12/26 01:15:52;;;;;;;8.57;3.67;;;0.00;99.90;;;;;;5053780;28;20106;-68
2021/12/26 01:18:19;;;;;;;10.10;4.50;;;0.10;99.90;;;;;;5053532;28;20539;-68
2021/12/26 01:20:51;;;;;;;10.40;4.33;;;0.10;99.90;;;;;;5053874;28;20516;-67
2021/12/26 01:23:22;;;;;;;8.07;3.43;;;0.20;99.90;;;;;;5053698;28;20049;-67
2021/12/26 01:25:49;;;;;;;8.93;3.60;;;0.10;99.90;;;;;;5053347;28;20557;-67
2021/12/26 01:28:18;;;;;;;10.53;4.23;;;0.10;99.90;;;;;;5053668;28;20049;-67
2021/12/26 01:30:45;;;;;;;9.33;3.50;;;0.10;99.90;;;;;;5053412;28;20064;-67
2021/12/26 01:33:15;;;;;;;9.60;3.67;;;0.10;99.90;;;;;;5053443;28;20088;-67
2021/12/26 01:35:45;;;;;;;8.20;3.63;;;0.20;99.90;;;;;;5053197;28;20330;-67
2021/12/26 01:38:16;;;;;;;9.97;3.73;;;0.20;99.90;;;;;;5053615;28;20107;-67
2021/12/26 01:40:51;;;;;;;9.57;3.90;;;0.20;99.90;;;;;;5060596;28;20049;-67
2021/12/26 01:43:20;;;;;;;8.93;3.80;;;0.10;99.90;;;;;;5058220;28;20060;-67
2021/12/26 01:45:51;;;;;;;7.90;3.57;;;0.20;99.90;;;;;;5052884;28;20052;-67
2021/12/26 01:48:19;;;;;;;9.53;3.73;;;0.30;99.90;;;;;;5190242;22;20101;-64
2021/12/26 01:50:48;;;;;;;8.37;3.17;;;0.20;99.90;;;;;;5115438;28;20036;-65
2021/12/26 01:53:19;;;;;;;7.93;3.07;;;0.10;99.90;;;;;;5115891;28;20044;-67
2021/12/26 01:55:48;;;;;;;9.27;3.87;;;0.10;99.90;;;;;;5114328;28;20048;-65
2021/12/26 01:58:17;;;;;;;9.77;4.03;;;0.10;99.90;;;;;;5114673;28;20044;-65
2021/12/26 02:00:47;;;;;;;9.30;3.93;;;0.20;99.90;;;;;;5114521;28;20052;-67
2021/12/26 02:03:14;;;;;;;12.13;3.60;;;0.30;99.90;;;;;;5113920;28;20055;-67
2021/12/26 02:05:42;;;;;;;8.37;3.87;;;0.30;99.90;;;;;;5112708;28;20086;-67
2021/12/26 02:08:11;;;;;;;7.27;2.93;;;0.30;99.90;;;;;;5113291;28;20082;-67
2021/12/26 02:10:41;;;;;;;9.37;3.83;;;0.20;99.90;;;;;;5113672;28;20112;-66
2021/12/26 02:13:10;;;;;;;10.17;4.10;;;0.20;99.90;;;;;;5111430;28;20474;-70
2021/12/26 02:15:37;;;;;;;9.93;4.70;;;0.10;99.90;;;;;;5112978;28;20051;-65
2021/12/26 02:18:05;;;;;;;8.47;3.57;;;0.10;99.90;;;;;;5114651;28;20048;-66
2021/12/26 02:20:43;;;;;;;8.80;4.33;;;0.10;99.90;;;;;;5114633;28;20063;-66
2021/12/26 02:23:16;;;;;;;9.47;4.00;;;0.20;99.90;;;;;;5099009;28;20500;-67
2021/12/26 02:28:29;;;;;;;12.57;4.50;;;0.20;99.90;;;;;;5095330;28;20440;-66
2021/12/26 02:30:58;;;;;;;12.27;4.50;;;0.20;99.90;;;;;;5095568;28;20091;-66
2021/12/26 02:33:27;;;;;;;8.67;3.50;;;0.10;99.90;;;;;;5096675;28;20059;-65
2021/12/26 02:35:58;;;;;;;8.90;3.93;;;0.10;99.90;;;;;;5095900;28;20074;-65
2021/12/26 02:38:27;;;;;;;10.83;4.40;;;0.10;99.90;;;;;;5096782;28;20059;-65
2021/12/26 02:40:57;;;;;;;8.80;3.10;;;0.00;99.90;;;;;;5095986;28;20044;-66
2021/12/26 02:43:27;;;;;;;9.77;4.33;;;0.10;99.90;;;;;;5096127;28;20097;-66
2021/12/26 02:45:54;;;;;;;10.20;4.20;;;0.10;99.90;;;;;;5096041;28;20500;-67
2021/12/26 02:48:22;;;;;;;9.33;3.97;;;0.10;99.90;;;;;;5096089;28;20052;-66
2021/12/26 02:50:56;;;;;;;9.97;4.03;;;0.20;99.90;;;;;;5094883;28;20487;-66
2021/12/26 02:53:25;;;;;;;9.77;3.83;;;0.00;99.90;;;;;;5094413;28;20051;-66
2021/12/26 02:55:56;;;;;;;9.60;3.83;;;0.00;99.90;;;;;;5092475;28;20079;-65
2021/12/26 02:58:23;;;;;;;10.63;4.70;;;0.00;99.90;;;;;;5093792;28;20052;-66
2021/12/26 03:00:55;;;;;;;12.40;4.43;;;-0.10;99.90;;;;;;5093473;28;20176;-67
2021/12/26 03:03:22;;;;;;;9.50;3.93;;;0.00;99.90;;;;;;5093563;28;20076;-67
2021/12/26 03:05:56;;;;;;;9.60;4.20;;;0.00;99.90;;;;;;5092339;28;20583;-65
2021/12/26 03:08:25;;;;;;;12.00;4.20;;;0.00;99.90;;;;;;5093470;28;20059;-66
2021/12/26 03:10:53;;;;;;;9.80;4.20;;;0.10;99.90;;;;;;5092933;28;20044;-67
2021/12/26 03:13:21;;;;;;;10.93;4.43;;;0.00;99.90;;;;;;5093875;28;20143;-66
2021/12/26 03:15:48;;;;;;;12.13;4.73;;;0.00;99.90;;;;;;5092423;28;20486;-67
2021/12/26 03:18:16;;;;;;;12.20;4.93;;;0.10;99.90;;;;;;5093404;28;20071;-67
2021/12/26 03:20:45;;;;;;;10.70;4.50;;;0.10;99.90;;;;;;5092395;28;20095;-66
2021/12/26 03:23:16;;;;;;;9.63;4.50;;;0.20;99.90;;;;;;5092585;28;20127;-66
2021/12/26 03:25:45;;;;;;;12.73;5.43;;;0.20;99.90;;;;;;5092051;28;20083;-66
2021/12/26 03:28:12;;;;;;;11.47;4.57;;;0.10;99.90;;;;;;5092621;28;20052;-66
2021/12/26 03:30:40;;;;;;;14.77;4.87;;;0.10;99.90;;;;;;5092234;28;20098;-67
2021/12/26 03:33:12;;;;;;;9.37;4.33;;;0.20;99.90;;;;;;5091856;28;20083;-65
2021/12/26 03:35:39;;;;;;;13.40;5.73;;;0.20;99.90;;;;;;5091551;28;20089;-66
2021/12/26 03:38:08;;;;;;;12.47;5.37;;;0.20;99.90;;;;;;5091828;28;20475;-66
2021/12/26 03:40:36;;;;;;;12.10;5.10;;;0.20;99.90;;;;;;5081956;28;20091;-67
2021/12/26 03:43:04;;;;;;;13.47;5.73;;;0.30;99.90;;;;;;5091351;28;20109;-66
2021/12/26 03:45:31;;;;;;;11.50;5.07;;;0.20;99.90;;;;;;5091396;28;20044;-67
2021/12/26 03:47:58;;;;;;;12.57;5.33;;;0.20;99.90;;;;;;5092745;28;20091;-67
2021/12/26 03:50:28;;;;;;;10.87;5.30;;;0.20;99.90;;;;;;5092323;28;20052;-67
2021/12/26 03:52:56;;;;;;;12.50;4.77;;;0.20;99.90;;;;;;5092336;28;20059;-67
2021/12/26 03:55:24;;;;;;;11.40;4.77;;;0.20;99.90;;;;;;5091683;28;20048;-67
2021/12/26 03:57:51;;;;;;;12.07;4.50;;;0.20;99.90;;;;;;5092044;28;20048;-66
2021/12/26 04:00:21;;;;;;;11.97;4.60;;;0.20;99.90;;;;;;5092477;28;20583;-66
2021/12/26 04:02:48;;;;;;;12.80;4.80;;;0.20;99.90;;;;;;5091496;28;20048;-67
2021/12/26 04:05:16;;;;;;;11.93;5.70;;;0.10;99.90;;;;;;5085428;28;20053;-65
2021/12/26 04:07:45;;;;;;;14.27;6.10;;;0.10;99.90;;;;;;5071738;28;20070;-66
2021/12/26 04:10:14;;;;;;;11.67;5.43;;;0.30;99.90;;;;;;5072868;28;20102;-67
2021/12/26 04:12:45;;;;;;;10.73;5.00;;;0.20;99.90;;;;;;5091231;28;20435;-67
2021/12/26 04:15:15;;;;;;;11.80;5.17;;;0.30;99.90;;;;;;5091654;28;20044;-67
2021/12/26 04:17:45;;;;;;;13.17;5.97;;;0.30;99.90;;;;;;5092401;28;20397;-67
2021/12/26 04:20:12;;;;;;;11.03;5.03;;;0.20;99.90;;;;;;5091514;28;20063;-66
2021/12/26 04:22:40;;;;;;;13.87;5.07;;;0.30;99.90;;;;;;5073525;28;20098;-67
2021/12/26 04:25:07;;;;;;;14.30;5.83;;;0.30;99.90;;;;;;5070596;28;20092;-67
2021/12/26 04:27:35;;;;;;;11.27;4.97;;;0.30;99.90;;;;;;5071175;28;20091;-67
2021/12/26 04:30:05;;;;;;;12.97;5.43;;;0.20;99.90;;;;;;5071041;28;20131;-67
2021/12/26 04:32:32;;;;;;;13.13;5.53;;;0.20;99.90;;;;;;5071063;28;20052;-66
2021/12/26 04:35:00;;;;;;;10.90;5.07;;;0.10;99.90;;;;;;5070584;28;20099;-66
2021/12/26 04:37:27;;;;;;;12.63;5.67;;;0.20;99.90;;;;;;5071364;28;20610;-66
2021/12/26 04:39:54;;;;;;;14.70;6.37;;;0.20;99.90;;;;;;5071188;28;20057;-66
2021/12/26 04:42:24;;;;;;;12.97;6.07;;;0.20;99.90;;;;;;5070957;28;20052;-66
2021/12/26 04:44:52;;;;;;;13.80;6.80;;;0.20;99.90;;;;;;5070492;28;20118;-66
2021/12/26 04:47:19;;;;;;;14.57;6.20;;;0.20;99.90;;;;;;5070866;28;20143;-66
2021/12/26 04:49:46;;;;;;;13.77;6.00;;;0.20;99.90;;;;;;5071033;28;20393;-66
2021/12/26 04:52:15;;;;;;;14.63;6.27;;;0.30;99.90;;;;;;5071395;28;20045;-66
2021/12/26 04:54:42;;;;;;;12.93;5.83;;;0.30;99.90;;;;;;5070457;28;20389;-66
2021/12/26 04:57:09;;;;;;;14.63;6.47;;;0.30;99.90;;;;;;5071205;28;20109;-66
2021/12/26 04:59:36;;;;;;;13.50;6.50;;;0.30;99.90;;;;;;5070854;28;20075;-66
2021/12/26 05:02:03;;;;;;;15.53;6.53;;;0.20;99.90;;;;;;5070942;28;20080;-67
2021/12/26 05:04:33;;;;;;;14.63;5.73;;;0.30;99.90;;;;;;5070515;28;20091;-66
2021/12/26 05:07:03;;;;;;;15.10;6.23;;;0.30;99.90;;;;;;5071014;28;20088;-66
2021/12/26 05:09:31;;;;;;;15.80;7.17;;;0.30;99.90;;;;;;5071125;28;20060;-65
2021/12/26 05:11:59;;;;;;;13.37;5.97;;;0.30;99.90;;;;;;5070709;28;20060;-67
2021/12/26 05:14:27;;;;;;;14.03;6.57;;;0.40;99.90;;;;;;5070766;28;20056;-67
2021/12/26 05:16:54;;;;;;;14.83;7.30;;;0.40;99.90;;;;;;5070332;28;20048;-69
2021/12/26 05:19:21;;;;;;;16.10;7.17;;;0.40;99.90;;;;;;5070492;28;20167;-68
2021/12/26 05:21:48;;;;;;;13.33;6.37;;;0.40;99.90;;;;;;5070775;28;20083;-67
2021/12/26 05:24:15;;;;;;;15.33;6.40;;;0.30;99.90;;;;;;5074103;28;20131;-67
2021/12/26 05:26:43;;;;;;;16.97;7.90;;;0.30;99.90;;;;;;5073480;28;20174;-67
2021/12/26 05:29:10;;;;;;;13.70;6.67;;;0.30;99.90;;;;;;5074287;28;20080;-67
2021/12/26 05:31:37;;;;;;;19.83;7.67;;;0.40;99.90;;;;;;5074307;28;20106;-67
2021/12/26 05:34:04;;;;;;;17.73;7.87;;;0.40;99.90;;;;;;5074210;28;20080;-67
2021/12/26 05:36:31;;;;;;;17.07;7.47;;;0.40;99.90;;;;;;5074022;28;20102;-67
2021/12/26 05:38:58;;;;;;;17.67;7.63;;;0.40;99.90;;;;;;5074113;28;20053;-67
2021/12/26 05:41:25;;;;;;;16.30;7.93;;;0.40;99.90;;;;;;5073991;28;20052;-67
2021/12/26 05:43:54;;;;;;;17.70;7.97;;;0.40;99.90;;;;;;5073973;28;20482;-68
2021/12/26 05:46:21;;;;;;;17.00;7.80;;;0.40;99.90;;;;;;5073700;28;20431;-67
2021/12/26 05:48:47;;;;;;;12.70;7.00;;;0.40;99.90;;;;;;5074149;28;20158;-68
2021/12/26 05:51:14;;;;;;;17.53;8.00;;;0.30;99.90;;;;;;5074129;28;20084;-67
2021/12/26 05:53:41;;;;;;;16.87;7.40;;;0.40;99.90;;;;;;5073949;28;20389;-68
2021/12/26 05:56:08;;;;;;;15.20;7.40;;;0.50;99.90;;;;;;5073517;28;20054;-67
2021/12/26 05:58:41;;;;;;;14.53;7.63;;;0.40;99.90;;;;;;5073765;28;20090;-67
2021/12/26 06:01:09;;;;;;;16.03;7.20;;;0.40;99.90;;;;;;5073672;28;20466;-67
2021/12/26 06:03:37;;;;;;;18.57;8.00;;;0.40;99.90;;;;;;5073175;28;20097;-66
2021/12/26 06:06:04;;;;;;;19.37;8.33;;;0.40;99.90;;;;;;5072547;28;20495;-68
2021/12/26 06:08:31;;;;;;;15.83;7.47;;;0.40;99.90;;;;;;5073324;28;20090;-67
2021/12/26 06:10:58;;;;;;;19.67;7.83;;;0.50;99.90;;;;;;5073154;28;20079;-67
2021/12/26 06:13:25;;;;;;;16.83;7.77;;;0.50;99.90;;;;;;5073647;28;20044;-68
2021/12/26 06:15:54;;;;;;;21.90;9.43;;;0.50;99.90;;;;;;5072849;28;20389;-67
2021/12/26 06:18:23;;;;;;;16.00;7.90;;;0.40;99.90;;;;;;5073342;28;20124;-67
2021/12/26 06:20:49;;;;;;;16.70;7.87;;;0.40;99.90;;;;;;5072989;28;20091;-67
2021/12/26 06:23:16;;;;;;;21.00;8.57;;;0.50;99.90;;;;;;5073534;28;20048;-67
2021/12/26 06:25:44;;;;;;;17.60;8.17;;;0.50;99.90;;;;;;5072301;28;20095;-67
2021/12/26 06:28:13;;;;;;;19.00;9.00;;;0.60;99.90;;;;;;5073270;28;20063;-67
2021/12/26 06:30:40;;;;;;;17.87;7.90;;;0.50;99.90;;;;;;5072785;28;20048;-67
2021/12/26 06:33:10;;;;;;;19.07;8.57;;;0.50;99.90;;;;;;5072617;28;20045;-67
2021/12/26 06:35:38;;;;;;;18.37;8.97;;;0.40;99.90;;;;;;5072329;28;20051;-67
2021/12/26 06:38:05;;;;;;;20.03;8.53;;;0.40;99.90;;;;;;5072976;28;20095;-67
2021/12/26 06:40:32;;;;;;;16.40;7.20;;;0.50;99.90;;;;;;5073020;28;20072;-68
2021/12/26 06:42:59;;;;;;;18.77;9.23;;;0.50;99.90;;;;;;5072597;28;20083;-67
2021/12/26 06:45:26;;;;;;;18.73;8.73;;;0.50;99.90;;;;;;5072377;28;20094;-67
2021/12/26 06:47:55;;;;;;;20.67;9.70;;;0.40;99.90;;;;;;5071982;28;20040;-68
2021/12/26 06:50:26;;;;;;;21.60;9.10;;;0.30;99.90;;;;;;5072520;28;20092;-67
2021/12/26 06:52:55;;;;;;;19.87;9.70;;;0.30;99.90;;;;;;5072550;28;20488;-68
2021/12/26 06:55:22;;;;;;;18.60;8.83;;;0.30;99.90;;;;;;5071952;28;20467;-67
2021/12/26 06:57:51;;;;;;;23.77;9.50;;;0.30;99.90;;;;;;5073052;28;20131;-68
2021/12/26 07:00:18;;;;;;;19.47;9.50;;;0.30;99.90;;;;;;5072945;28;20084;-67
2021/12/26 07:02:46;;;;;;;22.10;9.47;;;0.30;99.90;;;;;;5071844;28;20091;-67
2021/12/26 07:05:14;;;;;;;22.53;9.77;;;0.40;99.90;;;;;;5072177;28;20382;-67
2021/12/26 07:07:43;;;;;;;21.73;10.40;;;0.40;99.90;;;;;;5072445;28;20055;-66
2021/12/26 07:10:14;;;;;;;22.13;10.17;;;0.40;99.90;;;;;;5072238;28;20056;-67
2021/12/26 07:12:42;;;;;;;31.77;10.97;;;0.50;99.90;;;;;;5072204;28;20106;-68
2021/12/26 07:15:10;;;;;;;24.23;11.43;;;0.40;99.90;;;;;;5071422;28;20056;-68
2021/12/26 07:17:37;;;;;;;27.13;11.20;;;0.40;99.90;;;;;;5072150;28;20044;-67
2021/12/26 07:20:05;;;;;;;27.77;12.83;;;0.40;99.90;;;;;;5072070;28;20083;-68
2021/12/26 07:22:32;;;;;;;30.33;12.50;;;0.50;99.90;;;;;;5072137;28;20464;-67
2021/12/26 07:25:00;;;;;;;28.47;12.50;;;0.50;99.90;;;;;;5071968;28;20138;-67
2021/12/26 07:27:39;;;;;;;25.50;11.67;;;0.50;99.90;;;;;;5072058;28;20118;-67
2021/12/26 07:30:07;;;;;;;23.67;11.87;;;0.50;99.90;;;;;;5071540;28;20059;-68
2021/12/26 07:32:35;;;;;;;25.10;11.37;;;0.60;99.90;;;;;;5071667;28;20095;-68
2021/12/26 07:35:03;;;;;;;25.73;12.77;;;0.50;99.90;;;;;;5071300;28;20567;-68
2021/12/26 07:37:30;;;;;;;28.73;12.63;;;0.50;99.90;;;;;;5071639;28;20060;-68
2021/12/26 07:39:57;;;;;;;23.90;11.40;;;0.50;99.90;;;;;;5071863;28;20101;-68
2021/12/26 07:42:24;;;;;;;21.83;10.93;;;0.50;99.90;;;;;;5071616;28;20084;-68
2021/12/26 07:44:53;;;;;;;24.87;12.13;;;0.40;99.90;;;;;;5070467;28;20048;-68
2021/12/26 07:47:20;;;;;;;33.73;13.43;;;0.50;99.90;;;;;;5071647;28;20090;-68
2021/12/26 07:49:47;;;;;;;28.63;12.30;;;0.50;99.90;;;;;;5071252;28;20177;-67
2021/12/26 07:52:17;;;;;;;32.00;14.27;;;0.50;99.90;;;;;;5071842;28;20465;-67
2021/12/26 07:54:45;;;;;;;46.67;17.37;;;0.50;99.90;;;;;;5071360;28;20427;-67
2021/12/26 07:57:12;;;;;;;45.03;16.03;;;0.60;99.90;;;;;;5071932;28;20048;-67
2021/12/26 07:59:39;;;;;;;34.80;15.00;;;0.50;99.90;;;;;;5071560;28;20045;-69
2021/12/26 08:02:08;;;;;;;29.20;12.53;;;0.50;99.90;;;;;;5071283;28;20044;-67
2021/12/26 08:04:36;;;;;;;27.70;12.17;;;0.60;99.90;;;;;;5071372;28;20052;-67
2021/12/26 08:07:03;;;;;;;25.77;12.00;;;0.60;99.90;;;;;;5071150;28;20427;-69
2021/12/26 08:09:30;;;;;;;27.30;12.17;;;0.50;99.90;;;;;;5072169;28;20458;-67
2021/12/26 08:11:57;;;;;;;25.13;12.30;;;0.60;99.90;;;;;;5071515;28;20051;-67
2021/12/26 08:14:24;;;;;;;30.43;13.07;;;0.50;99.90;;;;;;5071914;28;20048;-68
2021/12/26 08:16:51;;;;;;;28.13;12.80;;;0.60;99.90;;;;;;5072126;28;20143;-68
2021/12/26 08:19:19;;;;;;;29.03;12.97;;;0.70;99.90;;;;;;5072431;28;20056;-68
2021/12/26 08:21:51;;;;;;;32.93;15.53;;;0.80;99.90;;;;;;5071865;28;20057;-67
2021/12/26 08:24:17;;;;;;;34.37;14.60;;;0.80;99.90;;;;;;5072098;28;20048;-67
2021/12/26 08:26:49;;;;;;;33.37;14.20;;;0.80;99.90;;;;;;5071405;28;20088;-69
2021/12/26 08:29:21;;;;;;;27.13;13.10;;;0.80;99.90;;;;;;5071736;28;20114;-67
2021/12/26 08:31:49;;;;;;;31.17;13.57;;;0.80;99.90;;;;;;5072372;28;20052;-67
2021/12/26 08:34:21;;;;;;;28.00;12.33;;;0.90;99.90;;;;;;5071972;28;20546;-67
2021/12/26 08:36:58;;;;;;;27.47;12.93;;;0.90;99.90;;;;;;5071762;28;20061;-67
2021/12/26 08:39:27;;;;;;;27.30;13.38;;;0.80;99.90;;;;;;5072168;28;20495;-67
2021/12/26 08:41:54;;;;;;;25.43;12.57;;;0.90;99.90;;;;;;5072008;28;20056;-67
2021/12/26 08:44:21;;;;;;;33.43;13.37;;;0.80;99.90;;;;;;5072026;28;20076;-67
2021/12/26 08:46:49;;;;;;;25.07;12.20;;;0.80;99.90;;;;;;5070906;28;20428;-66
2021/12/26 08:49:18;;;;;;;27.57;13.00;;;0.90;99.90;;;;;;5073396;28;20056;-68
2021/12/26 08:51:46;;;;;;;27.47;13.40;;;1.00;99.90;;;;;;5075864;28;20056;-67
2021/12/26 08:54:17;;;;;;;23.70;11.60;;;1.00;99.90;;;;;;5073162;28;20048;-70
2021/12/26 08:56:45;;;;;;;26.60;12.50;;;0.80;99.90;;;;;;5076661;28;20056;-68
2021/12/26 08:59:12;;;;;;;32.03;13.70;;;0.90;99.90;;;;;;5077454;28;20055;-67
2021/12/26 09:01:40;;;;;;;27.77;12.33;;;1.00;99.90;;;;;;5076946;28;20106;-68
2021/12/26 09:04:08;;;;;;;26.47;12.73;;;0.90;99.90;;;;;;5077403;28;20056;-68
2021/12/26 09:06:35;;;;;;;26.63;12.13;;;1.00;99.90;;;;;;5075380;28;20473;-67
2021/12/26 09:09:03;;;;;;;30.47;13.83;;;0.80;99.90;;;;;;5075318;28;20494;-68
2021/12/26 09:11:33;;;;;;;29.47;13.70;;;0.80;99.90;;;;;;5075209;28;20056;-69
2021/12/26 09:14:05;;;;;;;30.37;13.43;;;0.80;99.90;;;;;;5075258;28;20066;-67
2021/12/26 09:16:33;;;;;;;30.00;14.27;;;0.80;99.90;;;;;;5075480;28;20063;-66
2021/12/26 09:19:01;;;;;;;30.97;14.00;;;0.90;99.90;;;;;;5075211;28;20109;-67
2021/12/26 09:21:28;;;;;;;29.43;14.60;;;0.80;99.90;;;;;;5075918;28;20573;-69
2021/12/26 09:23:55;;;;;;;27.47;13.60;;;0.90;99.90;;;;;;5075171;28;20052;-67
2021/12/26 09:26:22;;;;;;;26.20;14.13;;;0.80;99.90;;;;;;5075400;28;20056;-67
2021/12/26 09:28:51;;;;;;;25.83;13.03;;;0.80;99.90;;;;;;5075666;28;20049;-66
2021/12/26 09:31:19;;;;;;;29.50;13.93;;;0.80;99.90;;;;;;5075408;28;20048;-67
2021/12/26 09:33:52;;;;;;;29.00;13.60;;;0.90;99.90;;;;;;5075992;28;20048;-69
2021/12/26 09:36:21;;;;;;;29.70;14.00;;;1.00;99.90;;;;;;5075413;28;20052;-69
2021/12/26 09:38:48;;;;;;;30.77;14.57;;;1.60;99.90;;;;;;5075308;28;20320;-66
2021/12/26 09:41:15;;;;;;;29.20;13.40;;;1.60;99.90;;;;;;5074274;28;20554;-66
2021/12/26 09:43:42;;;;;;;28.23;13.57;;;1.70;99.90;;;;;;5074717;28;20052;-66
2021/12/26 09:46:11;;;;;;;27.73;14.17;;;1.40;99.90;;;;;;5075517;28;20451;-67
2021/12/26 09:48:39;;;;;;;27.17;12.83;;;1.30;99.90;;;;;;5074422;28;20094;-66
2021/12/26 09:51:06;;;;;;;30.13;13.13;;;1.20;99.90;;;;;;5074466;28;20084;-67
2021/12/26 09:53:39;;;;;;;32.27;14.10;;;1.20;99.90;;;;;;5074701;28;20060;-67
2021/12/26 09:56:07;;;;;;;28.57;12.80;;;1.30;99.90;;;;;;5075260;28;20048;-67
2021/12/26 09:58:35;;;;;;;28.70;12.97;;;1.50;99.90;;;;;;5075390;28;20102;-68
2021/12/26 10:01:05;;;;;;;33.97;15.27;;;1.60;99.90;;;;;;5074505;28;20052;-68
2021/12/26 10:03:34;;;;;;;26.90;13.80;;;1.50;99.90;;;;;;5074528;28;20098;-68
2021/12/26 10:06:12;;;;;;;24.67;12.83;;;1.70;99.90;;;;;;5073523;28;20048;-65
2021/12/26 10:08:56;;;;;;;31.70;13.87;;;1.70;99.90;;;;;;5073939;28;20056;-67
2021/12/26 10:11:26;;;;;;;32.57;14.73;;;1.70;99.90;;;;;;5074183;28;20110;-68
2021/12/26 10:13:56;;;;;;;27.23;13.00;;;1.70;99.90;;;;;;5074217;28;20071;-68
2021/12/26 10:16:25;;;;;;;29.77;13.47;;;1.70;99.90;;;;;;5074661;28;20052;-68
2021/12/26 10:18:54;;;;;;;27.77;13.13;;;1.60;99.90;;;;;;5074191;28;20048;-68
2021/12/26 10:21:31;;;;;;;23.00;12.10;;;1.60;99.90;;;;;;5074137;28;20048;-69
2021/12/26 10:24:03;;;;;;;25.40;13.30;;;1.70;99.90;;;;;;5074572;28;20101;-66
2021/12/26 10:26:33;;;;;;;28.20;13.87;;;1.80;99.90;;;;;;5075301;28;20139;-67
2021/12/26 10:29:09;;;;;;;31.13;14.53;;;2.00;99.90;;;;;;5073713;28;20063;-67
2021/12/26 10:31:39;;;;;;;31.50;15.43;;;1.80;99.90;;;;;;5073754;28;20470;-68
2021/12/26 10:34:07;;;;;;;28.63;14.43;;;1.80;99.90;;;;;;5074328;28;20109;-66
2021/12/26 10:36:43;;;;;;;29.60;13.30;;;1.80;99.90;;;;;;5074166;28;20052;-66
2021/12/26 10:39:13;;;;;;;30.45;13.60;;;1.90;99.90;;;;;;5075576;28;20070;-67
2021/12/26 10:41:44;;;;;;;27.60;13.20;;;2.10;99.90;;;;;;5075850;28;20052;-67
2021/12/26 10:44:24;;;;;;;29.47;13.67;;;2.00;99.90;;;;;;5075958;28;20078;-66
2021/12/26 10:46:57;;;;;;;29.93;12.80;;;1.90;99.90;;;;;;5075303;28;20052;-67
2021/12/26 10:49:29;;;;;;;28.87;13.33;;;1.90;99.90;;;;;;5075838;28;20052;-66
2021/12/26 10:51:56;;;;;;;33.90;15.43;;;2.10;99.90;;;;;;5074754;28;20053;-66
2021/12/26 10:54:31;;;;;;;33.13;14.67;;;2.20;99.90;;;;;;5074443;28;20071;-66
2021/12/26 10:57:13;;;;;;;33.03;15.27;;;2.00;99.90;;;;;;5074981;28;20056;-67
2021/12/26 10:59:44;;;;;;;30.13;14.83;;;2.20;99.90;;;;;;5074543;28;20056;-67
2021/12/26 11:02:21;;;;;;;35.60;15.37;;;2.30;99.90;;;;;;5055669;28;20056;-67
2021/12/26 11:05:00;;;;;;;28.30;13.97;;;2.30;99.90;;;;;;5073110;28;20048;-67
2021/12/26 11:07:27;;;;;;;28.23;14.07;;;2.30;99.90;;;;;;5073382;28;20084;-67
2021/12/26 11:10:07;;;;;;;28.63;14.87;;;2.30;99.90;;;;;;5082919;28;20079;-68
2021/12/26 11:12:41;;;;;;;30.77;13.83;;;2.60;99.90;;;;;;5094138;28;20040;-68
2021/12/26 11:15:09;;;;;;;29.27;13.40;;;2.50;99.90;;;;;;5089568;28;20106;-66
2021/12/26 11:17:42;;;;;;;32.20;14.17;;;2.40;99.90;;;;;;5077495;28;20086;-66
2021/12/26 11:20:22;;;;;;;29.60;14.50;;;2.70;99.90;;;;;;5073837;28;20059;-67
2021/12/26 11:22:51;;;;;;;37.10;15.30;;;2.70;99.90;;;;;;5072701;28;20185;-67
2021/12/26 11:25:18;;;;;;;31.13;13.90;;;2.50;99.90;;;;;;5072406;28;20048;-65
2021/12/26 11:27:45;;;;;;;30.50;14.43;;;2.70;99.90;;;;;;5072370;28;20048;-65
2021/12/26 11:30:12;;;;;;;36.73;14.83;;;2.60;99.90;;;;;;5072921;28;20052;-66
2021/12/26 11:32:42;;;;;;;32.83;14.40;;;2.40;99.90;;;;;;5072549;28;20048;-66
2021/12/26 11:35:13;;;;;;;30.67;12.97;;;2.50;99.90;;;;;;5071988;28;20144;-68
2021/12/26 11:37:41;;;;;;;27.43;14.00;;;2.40;99.90;;;;;;5071856;28;20056;-67
2021/12/26 11:40:12;;;;;;;28.00;13.33;;;2.40;99.90;;;;;;5072644;28;20102;-67
2021/12/26 11:43:22;;;;;;;37.53;15.30;;;2.50;99.90;;;;;;5072360;28;20076;-67
2021/12/26 11:46:00;;;;;;;36.87;16.00;;;2.40;99.90;;;;;;5071920;28;20049;-68
2021/12/26 11:49:11;;;;;;;39.70;15.87;;;2.40;99.90;;;;;;5073213;28;20045;-65
2021/12/26 11:52:10;;;;;;;33.90;13.10;;;2.30;99.90;;;;;;5071484;28;20478;-66
2021/12/26 11:54:54;;;;;;;28.92;14.10;;;2.20;99.90;;;;;;5065411;28;20052;-67
2021/12/26 11:58:02;;;;;;;29.70;13.77;;;2.20;99.90;;;;;;5072169;28;20420;-65
2021/12/26 12:00:33;;;;;;;28.25;12.50;;;1.90;99.90;;;;;;5072511;28;20071;-67
2021/12/26 12:03:02;;;;;;;28.43;12.87;;;1.80;99.90;;;;;;5072373;28;20052;-66
2021/12/26 12:05:36;;;;;;;28.43;13.27;;;1.90;99.90;;;;;;5072610;28;20048;-64
2021/12/26 12:08:06;;;;;;;31.43;14.10;;;2.00;99.90;;;;;;5072687;28;20115;-65
2021/12/26 12:10:57;;;;;;;35.30;16.70;;;1.90;99.90;;;;;;5071926;28;20075;-65
2021/12/26 12:13:46;;;;;;;38.93;16.90;;;2.00;99.90;;;;;;5075498;28;20055;-67
2021/12/26 12:16:30;;;;;;;39.67;18.60;;;2.00;99.90;;;;;;5073316;28;20095;-66
2021/12/26 12:18:59;;;;;;;42.50;17.87;;;2.00;99.90;;;;;;5071975;28;20565;-68
2021/12/26 12:21:35;;;;;;;40.30;16.10;;;2.00;99.90;;;;;;5072772;28;20478;-69
2021/12/26 12:24:06;;;;;;;46.30;16.40;;;1.90;99.90;;;;;;5072796;28;20106;-68
2021/12/26 12:26:42;;;;;;;30.87;15.10;;;1.80;99.90;;;;;;5072127;28;20080;-67
2021/12/26 12:29:11;;;;;;;32.38;14.95;;;1.80;99.90;;;;;;5073493;28;20143;-68
2021/12/26 12:31:38;;;;;;;38.10;14.93;;;1.70;99.90;;;;;;5075731;28;20080;-67
2021/12/26 12:34:08;;;;;;;29.90;13.93;;;1.60;99.90;;;;;;5078235;28;20052;-67
2021/12/26 12:36:40;;;;;;;34.37;14.93;;;1.60;99.90;;;;;;5077090;28;20157;-67
2021/12/26 12:39:14;;;;;;;28.90;13.37;;;1.50;99.90;;;;;;5076836;28;20108;-67
2021/12/26 12:41:47;;;;;;;30.23;14.00;;;1.60;99.90;;;;;;5076131;28;20124;-66
2021/12/26 12:44:29;;;;;;;33.13;14.70;;;1.50;99.90;;;;;;5076206;28;20080;-67
2021/12/26 12:47:00;;;;;;;28.03;13.40;;;1.50;99.90;;;;;;5076173;28;20045;-66
2021/12/26 12:49:45;;;;;;;33.13;14.47;;;1.50;99.90;;;;;;5076595;28;20060;-67
2021/12/26 12:52:45;;;;;;;24.40;12.37;;;1.50;99.90;;;;;;5076166;28;20086;-67
2021/12/26 12:55:23;;;;;;;26.53;11.97;;;1.70;99.90;;;;;;5078263;28;20056;-66
2021/12/26 12:57:52;;;;;;;27.37;11.77;;;1.50;99.90;;;;;;5084167;28;20052;-69
2021/12/26 13:00:50;;;;;;;23.40;11.93;;;1.50;99.90;;;;;;5079133;28;20048;-67